Time;durP1;ratioP1;P1;durP2;ratioP2;P2;SDS_P1;SDS_P2;PMS_P1;PMS_P2;Temp;Humidity;BMP_temperature;BMP_pressure;BME280_temperature;BME280_humidity;BME280_pressure;Samples;Min_cycle;Max_cycle;Signal;HPM_P1;HPM_P2
2023/09/06 00:00:29;;;;;;;0.82;0.82;;;;;;;;;;6242089;28;20296;-70
2023/09/06 00:03:36;;;;;;;0.82;0.82;;;;;;;;;;6241567;28;20579;-70
2023/09/06 00:06:40;;;;;;;1.48;0.82;;;;;;;;;;6242285;28;20308;-71
2023/09/06 00:09:44;;;;;;;0.80;0.80;;;;;;;;;;6241270;28;20304;-69
2023/09/06 00:12:48;;;;;;;1.48;0.75;;;;;;;;;;6242438;28;20315;-71
2023/09/06 00:15:52;;;;;;;1.20;0.80;;;;;;;;;;6242192;28;20311;-72
2023/09/06 00:18:59;;;;;;;1.35;0.63;;;;;;;;;;6242063;28;20477;-70
2023/09/06 00:22:04;;;;;;;0.73;0.73;;;;;;;;;;6242214;28;20316;-70
2023/09/06 00:25:09;;;;;;;0.80;0.80;;;;;;;;;;6241946;28;20295;-70
2023/09/06 00:28:13;;;;;;;0.88;0.88;;;;;;;;;;6241455;28;20336;-71
2023/09/06 00:31:17;;;;;;;2.03;0.70;;;;;;;;;;6240840;28;20296;-71
2023/09/06 00:34:24;;;;;;;1.20;0.80;;;;;;;;;;6240039;28;20300;-70
2023/09/06 00:37:35;;;;;;;0.73;0.73;;;;;;;;;;6240243;28;20391;-71
2023/09/06 00:40:40;;;;;;;0.82;0.82;;;;;;;;;;6241260;28;20291;-70
2023/09/06 00:43:44;;;;;;;0.70;0.70;;;;;;;;;;6240063;28;20303;-71
2023/09/06 00:46:48;;;;;;;0.70;0.70;;;;;;;;;;6240764;28;20292;-70
2023/09/06 00:49:53;;;;;;;0.75;0.75;;;;;;;;;;6240245;28;20304;-70
2023/09/06 00:52:57;;;;;;;2.30;0.60;;;;;;;;;;6239165;28;20296;-71
2023/09/06 00:56:02;;;;;;;0.95;0.75;;;;;;;;;;6237053;28;20304;-71
2023/09/06 00:59:10;;;;;;;0.68;0.68;;;;;;;;;;6236039;28;20296;-70
2023/09/06 01:02:14;;;;;;;0.60;0.60;;;;;;;;;;6237736;28;20305;-69
2023/09/06 01:05:20;;;;;;;0.68;0.68;;;;;;;;;;6235713;28;20555;-71
2023/09/06 01:08:28;;;;;;;0.60;0.60;;;;;;;;;;6237744;28;20304;-72
2023/09/06 01:11:38;;;;;;;0.70;0.70;;;;;;;;;;6237822;28;20288;-70
2023/09/06 01:14:42;;;;;;;0.80;0.80;;;;;;;;;;6235755;28;20305;-71
2023/09/06 01:17:47;;;;;;;3.22;0.90;;;;;;;;;;6236960;28;20288;-70
2023/09/06 01:20:54;;;;;;;4.07;0.90;;;;;;;;;;6238461;28;20292;-69
2023/09/06 01:24:02;;;;;;;0.75;0.75;;;;;;;;;;6239514;28;20473;-71
2023/09/06 01:27:06;;;;;;;0.75;0.75;;;;;;;;;;6240033;28;20308;-70
2023/09/06 01:30:11;;;;;;;1.65;0.63;;;;;;;;;;6240604;28;20296;-69
2023/09/06 01:33:16;;;;;;;0.60;0.60;;;;;;;;;;6239520;28;20317;-70
2023/09/06 01:36:20;;;;;;;1.75;0.70;;;;;;;;;;6242237;28;20441;-69
2023/09/06 01:39:26;;;;;;;0.90;0.90;;;;;;;;;;6240435;28;20303;-70
2023/09/06 01:42:29;;;;;;;0.60;0.60;;;;;;;;;;6238946;28;20304;-68
2023/09/06 01:45:35;;;;;;;1.42;0.80;;;;;;;;;;6239896;28;20304;-69
2023/09/06 01:48:39;;;;;;;2.63;0.82;;;;;;;;;;6241285;28;20289;-71
2023/09/06 01:51:43;;;;;;;0.75;0.75;;;;;;;;;;6240637;28;20487;-69
2023/09/06 01:54:48;;;;;;;0.70;0.70;;;;;;;;;;6238983;28;20284;-69
2023/09/06 01:57:52;;;;;;;0.80;0.80;;;;;;;;;;6239992;28;20377;-71
2023/09/06 02:00:57;;;;;;;0.55;0.55;;;;;;;;;;6238201;28;20572;-70
2023/09/06 02:04:04;;;;;;;2.83;0.90;;;;;;;;;;6235050;28;20312;-70
2023/09/06 02:07:08;;;;;;;0.90;0.90;;;;;;;;;;6235962;28;20288;-70
2023/09/06 02:10:13;;;;;;;0.80;0.80;;;;;;;;;;6234013;28;20490;-70
2023/09/06 02:13:17;;;;;;;3.10;0.88;;;;;;;;;;6235207;28;20301;-70
2023/09/06 02:16:22;;;;;;;2.65;0.70;;;;;;;;;;6234581;28;20296;-71
2023/09/06 02:19:26;;;;;;;2.47;0.73;;;;;;;;;;6234638;28;20296;-71
2023/09/06 02:22:30;;;;;;;1.08;1.00;;;;;;;;;;6235691;28;20320;-71
2023/09/06 02:25:35;;;;;;;0.60;0.60;;;;;;;;;;6234744;28;20296;-71
2023/09/06 02:28:38;;;;;;;0.50;0.50;;;;;;;;;;6234309;28;20311;-71
2023/09/06 02:31:44;;;;;;;0.80;0.80;;;;;;;;;;6234597;28;20319;-70
2023/09/06 02:34:48;;;;;;;4.45;0.90;;;;;;;;;;6235158;28;20295;-72
2023/09/06 02:37:52;;;;;;;5.65;1.20;;;;;;;;;;6233561;28;20291;-71
2023/09/06 02:40:57;;;;;;;20.50;2.17;;;;;;;;;;6235517;28;20321;-70
2023/09/06 02:44:01;;;;;;;8.27;1.50;;;;;;;;;;6235240;28;20402;-70
2023/09/06 02:47:09;;;;;;;6.55;1.63;;;;;;;;;;6235675;28;20300;-70
2023/09/06 02:50:13;;;;;;;12.23;1.60;;;;;;;;;;6234289;28;20373;-69
2023/09/06 02:53:19;;;;;;;10.18;1.38;;;;;;;;;;6233729;28;20300;-71
2023/09/06 02:56:26;;;;;;;16.45;1.92;;;;;;;;;;6235115;28;20240;-69
2023/09/06 02:59:29;;;;;;;8.80;1.27;;;;;;;;;;6233588;28;20585;-70
2023/09/06 03:02:33;;;;;;;13.70;1.88;;;;;;;;;;6214027;28;20292;-71
2023/09/06 03:05:41;;;;;;;14.43;1.60;;;;;;;;;;6234201;28;20288;-69
2023/09/06 03:08:51;;;;;;;12.95;1.67;;;;;;;;;;6233196;28;20375;-70
2023/09/06 03:11:56;;;;;;;56.05;3.58;;;;;;;;;;6233981;28;20308;-72
2023/09/06 03:15:00;;;;;;;43.90;2.72;;;;;;;;;;6234548;28;20307;-70
2023/09/06 03:18:05;;;;;;;33.75;2.80;;;;;;;;;;6233372;28;20320;-71
2023/09/06 03:21:09;;;;;;;55.30;3.65;;;;;;;;;;6234148;28;20604;-70
2023/09/06 03:24:13;;;;;;;31.35;2.80;;;;;;;;;;6234137;28;20557;-70
2023/09/06 03:27:20;;;;;;;27.98;2.50;;;;;;;;;;6233205;28;20304;-69
2023/09/06 03:30:24;;;;;;;4.90;1.00;;;;;;;;;;6232972;28;20320;-70
2023/09/06 03:33:29;;;;;;;0.90;0.90;;;;;;;;;;6234831;28;20308;-70
2023/09/06 03:36:35;;;;;;;1.95;1.20;;;;;;;;;;6232576;28;20303;-69
2023/09/06 03:39:41;;;;;;;3.42;0.90;;;;;;;;;;6232760;28;20303;-69
2023/09/06 03:42:47;;;;;;;0.85;0.85;;;;;;;;;;6233437;28;20325;-69
2023/09/06 03:45:51;;;;;;;0.77;0.77;;;;;;;;;;6234854;28;20309;-70
2023/09/06 03:48:55;;;;;;;0.93;0.93;;;;;;;;;;6232682;28;20580;-69
2023/09/06 03:52:00;;;;;;;0.80;0.80;;;;;;;;;;6232878;28;20328;-70
2023/09/06 03:55:05;;;;;;;0.80;0.80;;;;;;;;;;6232636;28;20296;-70
2023/09/06 03:58:10;;;;;;;1.17;0.90;;;;;;;;;;6233492;28;20289;-70
2023/09/06 04:01:15;;;;;;;1.80;1.00;;;;;;;;;;6232131;28;20293;-70
2023/09/06 04:04:22;;;;;;;1.48;1.08;;;;;;;;;;6231993;28;20560;-69
2023/09/06 04:07:26;;;;;;;1.20;1.10;;;;;;;;;;6233085;28;20503;-70
2023/09/06 04:10:36;;;;;;;1.13;1.10;;;;;;;;;;6232448;28;20288;-71
2023/09/06 04:13:43;;;;;;;1.55;1.20;;;;;;;;;;6233795;28;20300;-70
2023/09/06 04:16:49;;;;;;;1.65;1.20;;;;;;;;;;6232099;28;20589;-70
2023/09/06 04:19:55;;;;;;;2.20;1.23;;;;;;;;;;6232355;28;20319;-69
2023/09/06 04:23:00;;;;;;;1.10;1.10;;;;;;;;;;6232768;28;20573;-70
2023/09/06 04:26:05;;;;;;;2.38;0.95;;;;;;;;;;6232024;28;20292;-71
2023/09/06 04:29:10;;;;;;;2.67;0.98;;;;;;;;;;6234459;28;20481;-70
2023/09/06 04:32:17;;;;;;;1.35;1.27;;;;;;;;;;6238734;28;20253;-70
2023/09/06 04:35:22;;;;;;;1.05;1.05;;;;;;;;;;6236809;28;20304;-69
2023/09/06 04:38:26;;;;;;;3.53;0.90;;;;;;;;;;6237333;28;20296;-70
2023/09/06 04:41:36;;;;;;;1.10;1.10;;;;;;;;;;6236837;28;20291;-70
2023/09/06 04:44:44;;;;;;;1.20;1.20;;;;;;;;;;6236536;28;20319;-70
2023/09/06 04:47:49;;;;;;;1.00;1.00;;;;;;;;;;6237516;28;20304;-70
2023/09/06 04:50:55;;;;;;;2.38;1.30;;;;;;;;;;6236515;28;20292;-70
2023/09/06 04:54:00;;;;;;;1.10;1.10;;;;;;;;;;6236402;28;20296;-70
2023/09/06 04:57:10;;;;;;;1.50;1.40;;;;;;;;;;6237314;28;20296;-69
2023/09/06 05:00:17;;;;;;;1.20;1.20;;;;;;;;;;6237773;28;20312;-70
2023/09/06 05:03:22;;;;;;;1.08;1.00;;;;;;;;;;6237540;28;20487;-69
2023/09/06 05:06:30;;;;;;;1.23;1.23;;;;;;;;;;6235987;28;20452;-69
2023/09/06 05:09:34;;;;;;;1.10;1.10;;;;;;;;;;6236179;28;20300;-69
2023/09/06 05:12:39;;;;;;;1.00;1.00;;;;;;;;;;6237887;28;20369;-71
2023/09/06 05:15:45;;;;;;;2.45;1.25;;;;;;;;;;6236535;28;20312;-69
2023/09/06 05:18:50;;;;;;;1.67;0.90;;;;;;;;;;6235707;28;20498;-70
2023/09/06 05:21:58;;;;;;;1.15;1.05;;;;;;;;;;6236271;28;20312;-70
2023/09/06 05:25:02;;;;;;;0.95;0.95;;;;;;;;;;6236878;28;20581;-70
2023/09/06 05:28:08;;;;;;;1.92;0.82;;;;;;;;;;6236155;28;20292;-70
2023/09/06 05:31:14;;;;;;;2.38;1.40;;;;;;;;;;6235848;28;20304;-71
2023/09/06 05:34:19;;;;;;;1.92;0.90;;;;;;;;;;6235372;28;20542;-70
2023/09/06 05:37:24;;;;;;;1.38;1.27;;;;;;;;;;6236954;28;20320;-69
2023/09/06 05:40:30;;;;;;;1.38;1.38;;;;;;;;;;6234642;28;20470;-70
2023/09/06 05:43:34;;;;;;;1.05;1.05;;;;;;;;;;6237198;28;20300;-70
2023/09/06 05:46:40;;;;;;;1.23;1.13;;;;;;;;;;6235318;28;20300;-70
2023/09/06 05:49:51;;;;;;;3.50;1.15;;;;;;;;;;6235713;28;20300;-70
2023/09/06 05:52:55;;;;;;;1.00;1.00;;;;;;;;;;6235850;28;20300;-71
2023/09/06 05:55:59;;;;;;;5.65;1.25;;;;;;;;;;6234839;28;20308;-70
2023/09/06 05:59:05;;;;;;;1.40;1.00;;;;;;;;;;6234971;28;20295;-71
2023/09/06 06:02:10;;;;;;;1.35;1.02;;;;;;;;;;6234039;28;20300;-70
2023/09/06 06:05:15;;;;;;;1.77;1.20;;;;;;;;;;6235996;28;20328;-70
2023/09/06 06:08:19;;;;;;;3.58;1.15;;;;;;;;;;6235414;28;20292;-72
2023/09/06 06:11:23;;;;;;;1.40;0.90;;;;;;;;;;6235864;28;20584;-71
2023/09/06 06:14:30;;;;;;;1.13;1.10;;;;;;;;;;6235664;28;20296;-70
2023/09/06 06:17:36;;;;;;;3.72;1.20;;;;;;;;;;6236621;28;20291;-70
2023/09/06 06:20:41;;;;;;;1.52;1.02;;;;;;;;;;6235846;28;20297;-69
2023/09/06 06:23:47;;;;;;;1.00;1.00;;;;;;;;;;6235359;28;20296;-70
2023/09/06 06:26:51;;;;;;;2.92;0.98;;;;;;;;;;6235338;28;20592;-69
2023/09/06 06:29:55;;;;;;;1.17;1.00;;;;;;;;;;6235479;28;20607;-69
2023/09/06 06:33:00;;;;;;;1.35;0.95;;;;;;;;;;6235065;28;20304;-69
2023/09/06 06:36:04;;;;;;;1.95;0.90;;;;;;;;;;6235837;28;20308;-69
2023/09/06 06:39:10;;;;;;;1.02;1.00;;;;;;;;;;6234878;28;20496;-70
2023/09/06 06:42:14;;;;;;;1.13;1.13;;;;;;;;;;6235440;28;20304;-69
2023/09/06 06:45:22;;;;;;;3.10;1.10;;;;;;;;;;6234143;28;20304;-70
2023/09/06 06:48:27;;;;;;;0.90;0.90;;;;;;;;;;6235762;28;20304;-71
2023/09/06 06:51:35;;;;;;;1.48;0.93;;;;;;;;;;6234465;28;20415;-69
2023/09/06 06:54:41;;;;;;;2.05;0.88;;;;;;;;;;6235144;28;20312;-69
2023/09/06 06:57:47;;;;;;;0.85;0.85;;;;;;;;;;6235610;28;20304;-69
2023/09/06 07:00:51;;;;;;;1.08;0.88;;;;;;;;;;6234693;28;20300;-71
2023/09/06 07:03:56;;;;;;;1.40;0.95;;;;;;;;;;6234850;28;20328;-72
2023/09/06 07:07:00;;;;;;;1.30;1.20;;;;;;;;;;6235788;28;20300;-69
2023/09/06 07:10:06;;;;;;;1.20;1.10;;;;;;;;;;6235047;28;20292;-70
2023/09/06 07:13:10;;;;;;;2.83;0.90;;;;;;;;;;6234924;28;20292;-70
2023/09/06 07:16:15;;;;;;;1.65;0.88;;;;;;;;;;6234436;28;20536;-70
2023/09/06 07:19:21;;;;;;;1.00;1.00;;;;;;;;;;6234931;28;20297;-69
2023/09/06 07:22:25;;;;;;;1.40;1.02;;;;;;;;;;6235102;28;20292;-70
2023/09/06 07:25:29;;;;;;;3.88;1.00;;;;;;;;;;6234752;28;20300;-70
2023/09/06 07:28:39;;;;;;;1.30;1.05;;;;;;;;;;6234816;28;20308;-70
2023/09/06 07:31:42;;;;;;;1.00;0.98;;;;;;;;;;6234159;28;20300;-70
2023/09/06 07:34:48;;;;;;;0.88;0.88;;;;;;;;;;6234127;28;20300;-69
2023/09/06 07:37:51;;;;;;;2.60;1.40;;;;;;;;;;6235023;28;20360;-70
2023/09/06 07:40:59;;;;;;;0.90;0.90;;;;;;;;;;6234169;28;20296;-69
2023/09/06 07:44:03;;;;;;;2.05;0.90;;;;;;;;;;6233615;28;20775;-69
2023/09/06 07:47:07;;;;;;;2.38;1.10;;;;;;;;;;6233843;28;20295;-69
2023/09/06 07:50:12;;;;;;;1.38;0.85;;;;;;;;;;6233995;28;20300;-69
2023/09/06 07:53:16;;;;;;;1.73;1.20;;;;;;;;;;6234631;28;20241;-69
2023/09/06 07:56:20;;;;;;;0.90;0.90;;;;;;;;;;6233776;28;20309;-69
2023/09/06 07:59:24;;;;;;;3.50;1.08;;;;;;;;;;6234082;28;20300;-70
2023/09/06 08:02:28;;;;;;;1.83;0.88;;;;;;;;;;6235919;28;20596;-70
2023/09/06 08:05:35;;;;;;;3.63;1.17;;;;;;;;;;6238881;28;20291;-70
2023/09/06 08:08:38;;;;;;;2.78;1.33;;;;;;;;;;6239094;28;20320;-69
2023/09/06 08:11:42;;;;;;;2.45;1.23;;;;;;;;;;6238344;28;20292;-70
2023/09/06 08:14:46;;;;;;;3.40;1.08;;;;;;;;;;6238472;28;20303;-70
2023/09/06 08:17:51;;;;;;;2.42;1.02;;;;;;;;;;6239558;28;20296;-70
2023/09/06 08:20:56;;;;;;;3.88;0.93;;;;;;;;;;6238721;28;20303;-68
2023/09/06 08:24:02;;;;;;;1.58;1.02;;;;;;;;;;6238372;28;20288;-70
2023/09/06 08:27:06;;;;;;;2.63;1.10;;;;;;;;;;6238948;28;20300;-71
2023/09/06 08:30:11;;;;;;;1.30;0.95;;;;;;;;;;6238266;28;20480;-70
2023/09/06 08:33:15;;;;;;;0.82;0.82;;;;;;;;;;6238631;28;20429;-71
2023/09/06 08:36:22;;;;;;;1.40;0.80;;;;;;;;;;6238240;28;20368;-73
2023/09/06 08:39:26;;;;;;;3.55;0.90;;;;;;;;;;6237728;28;20296;-70
2023/09/06 08:42:33;;;;;;;2.08;1.05;;;;;;;;;;6238635;28;20304;-70
2023/09/06 08:45:38;;;;;;;1.98;1.52;;;;;;;;;;6238447;28;20296;-71
2023/09/06 08:48:42;;;;;;;1.10;1.10;;;;;;;;;;6238603;28;20558;-70
2023/09/06 08:51:48;;;;;;;1.48;1.10;;;;;;;;;;6237637;28;20296;-73
2023/09/06 08:56:28;;;;;;;2.47;1.08;;;;;;;;;;6321250;27;20638;-71
2023/09/06 08:59:33;;;;;;;2.08;1.40;;;;;;;;;;6311057;28;20297;-72
2023/09/06 09:02:40;;;;;;;2.65;1.20;;;;;;;;;;6321716;28;20370;-72
2023/09/06 09:05:44;;;;;;;3.40;1.02;;;;;;;;;;6305101;28;20294;-69
2023/09/06 09:08:48;;;;;;;1.95;1.05;;;;;;;;;;6304647;28;20306;-69
2023/09/06 09:11:54;;;;;;;3.65;1.08;;;;;;;;;;6305065;28;20575;-71
2023/09/06 09:14:58;;;;;;;5.05;1.00;;;;;;;;;;6304635;28;20294;-69
2023/09/06 09:18:20;;;;;;;3.10;1.02;;;;;;;;;;6304935;28;20298;-71
2023/09/06 09:21:24;;;;;;;1.27;1.00;;;;;;;;;;6320284;28;20470;-71
2023/09/06 09:24:29;;;;;;;2.00;1.00;;;;;;;;;;6304796;28;20325;-70
2023/09/06 09:27:36;;;;;;;3.85;1.00;;;;;;;;;;6305248;28;20310;-69
2023/09/06 09:30:40;;;;;;;1.75;1.00;;;;;;;;;;6304307;28;20568;-69
2023/09/06 09:33:45;;;;;;;1.05;1.02;;;;;;;;;;6304000;28;20306;-70
2023/09/06 09:36:50;;;;;;;1.33;1.00;;;;;;;;;;6304810;28;20314;-70
2023/09/06 09:39:54;;;;;;;2.13;0.93;;;;;;;;;;6303899;28;20318;-72
2023/09/06 09:43:02;;;;;;;2.55;0.85;;;;;;;;;;6304469;28;20543;-70
2023/09/06 09:46:06;;;;;;;2.08;1.02;;;;;;;;;;6304122;28;20543;-70
2023/09/06 09:49:11;;;;;;;1.48;1.48;;;;;;;;;;6304035;28;20586;-70
2023/09/06 09:52:17;;;;;;;1.13;1.13;;;;;;;;;;6304062;28;20587;-70
2023/09/06 09:55:24;;;;;;;2.78;1.20;;;;;;;;;;6303113;28;20307;-70
2023/09/06 09:58:31;;;;;;;1.58;1.13;;;;;;;;;;6304077;28;20290;-70
2023/09/06 10:01:35;;;;;;;1.35;1.00;;;;;;;;;;6303747;28;20314;-69
2023/09/06 10:04:42;;;;;;;3.70;1.30;;;;;;;;;;6303180;28;20346;-70
2023/09/06 10:07:46;;;;;;;2.83;1.20;;;;;;;;;;6287597;28;20351;-70
2023/09/06 10:10:52;;;;;;;1.17;1.02;;;;;;;;;;6285828;28;20286;-70
2023/09/06 10:13:59;;;;;;;3.45;1.23;;;;;;;;;;6286538;28;20311;-71
2023/09/06 10:17:04;;;;;;;2.50;1.25;;;;;;;;;;6327195;28;20301;-70
2023/09/06 10:20:12;;;;;;;5.00;0.90;;;;;;;;;;6309804;28;20299;-70
2023/09/06 10:23:18;;;;;;;0.90;0.90;;;;;;;;;;6309677;28;20303;-69
2023/09/06 10:26:26;;;;;;;1.00;1.00;;;;;;;;;;6311415;28;20310;-70
2023/09/06 10:29:32;;;;;;;1.27;1.17;;;;;;;;;;6311398;28;20286;-71
2023/09/06 10:32:43;;;;;;;4.18;1.27;;;;;;;;;;6296682;22;20304;-69
2023/09/06 10:35:46;;;;;;;2.67;1.33;;;;;;;;;;6259222;28;20312;-70
2023/09/06 10:39:14;;;;;;;1.02;0.98;;;;;;;;;;6261907;28;20291;-71
2023/09/06 10:42:21;;;;;;;6.00;1.30;;;;;;;;;;6259164;28;20351;-70
2023/09/06 10:45:26;;;;;;;0.88;0.80;;;;;;;;;;6260864;28;20308;-71
2023/09/06 10:48:30;;;;;;;2.05;1.38;;;;;;;;;;6261152;28;20303;-69
2023/09/06 10:51:34;;;;;;;2.30;0.82;;;;;;;;;;6262119;28;20330;-70
2023/09/06 10:54:40;;;;;;;0.80;0.80;;;;;;;;;;6261352;28;20287;-70
2023/09/06 10:57:52;;;;;;;7.15;1.15;;;;;;;;;;6261268;28;20494;-71
2023/09/06 11:01:16;;;;;;;2.72;1.00;;;;;;;;;;6260942;28;20480;-70
2023/09/06 11:04:26;;;;;;;2.22;0.90;;;;;;;;;;6276730;28;20276;-70
2023/09/06 11:07:38;;;;;;;1.20;1.10;;;;;;;;;;6261042;28;20326;-70
2023/09/06 11:10:53;;;;;;;0.98;0.98;;;;;;;;;;6261065;28;20303;-69
2023/09/06 11:14:03;;;;;;;0.98;0.90;;;;;;;;;;6261597;28;20300;-69
2023/09/06 11:17:24;;;;;;;3.25;1.00;;;;;;;;;;6261410;28;20577;-68
2023/09/06 11:20:28;;;;;;;1.15;1.05;;;;;;;;;;6261318;28;20446;-69
2023/09/06 11:23:44;;;;;;;3.30;1.20;;;;;;;;;;6260950;28;20312;-68
2023/09/06 11:26:48;;;;;;;1.70;1.00;;;;;;;;;;6260154;28;20296;-71
2023/09/06 11:29:59;;;;;;;0.80;0.80;;;;;;;;;;6259135;28;20299;-70
2023/09/06 11:33:07;;;;;;;1.00;0.90;;;;;;;;;;6259065;28;20565;-73
2023/09/06 11:36:13;;;;;;;1.50;1.00;;;;;;;;;;6260016;28;20369;-70
2023/09/06 11:39:18;;;;;;;1.00;0.95;;;;;;;;;;6260034;28;20308;-69
2023/09/06 11:42:24;;;;;;;0.82;0.82;;;;;;;;;;6260523;28;20296;-69
2023/09/06 11:45:31;;;;;;;1.10;1.10;;;;;;;;;;6274484;28;20296;-69
2023/09/06 11:48:37;;;;;;;1.38;1.00;;;;;;;;;;6260231;28;20323;-68
2023/09/06 11:51:41;;;;;;;1.10;1.05;;;;;;;;;;6259650;28;20327;-68
2023/09/06 11:54:49;;;;;;;0.98;0.88;;;;;;;;;;6259343;28;20604;-71
2023/09/06 11:57:56;;;;;;;1.27;1.17;;;;;;;;;;6259793;28;20316;-69
2023/09/06 12:01:05;;;;;;;1.15;1.00;;;;;;;;;;6259558;28;20296;-68
2023/09/06 12:04:15;;;;;;;1.25;1.10;;;;;;;;;;6259437;28;20291;-69
2023/09/06 12:07:23;;;;;;;1.10;1.10;;;;;;;;;;6258045;28;20304;-70
2023/09/06 12:10:28;;;;;;;5.70;1.30;;;;;;;;;;6259646;28;20291;-70
2023/09/06 12:13:34;;;;;;;2.58;0.88;;;;;;;;;;6259878;28;20423;-70
2023/09/06 12:16:39;;;;;;;4.00;1.20;;;;;;;;;;6259961;28;20327;-69
2023/09/06 12:19:45;;;;;;;3.83;0.90;;;;;;;;;;6274547;28;20294;-69
2023/09/06 12:22:49;;;;;;;0.68;0.68;;;;;;;;;;6259667;28;20296;-69
2023/09/06 12:25:52;;;;;;;1.38;0.93;;;;;;;;;;6259080;28;20303;-70
2023/09/06 12:28:57;;;;;;;0.70;0.70;;;;;;;;;;6258701;28;20291;-69
2023/09/06 12:32:01;;;;;;;1.33;0.95;;;;;;;;;;6258927;28;20323;-69
2023/09/06 12:35:07;;;;;;;0.80;0.80;;;;;;;;;;6258860;28;20667;-71
2023/09/06 12:38:11;;;;;;;1.38;0.88;;;;;;;;;;6257794;28;20295;-71
2023/09/06 12:41:15;;;;;;;2.20;0.77;;;;;;;;;;6258835;28;20299;-69
2023/09/06 12:44:21;;;;;;;0.77;0.75;;;;;;;;;;6258688;28;20298;-69
2023/09/06 12:47:25;;;;;;;1.92;0.80;;;;;;;;;;6259369;28;20504;-69
2023/09/06 12:50:30;;;;;;;2.63;1.00;;;;;;;;;;6258988;28;20295;-68
2023/09/06 12:53:34;;;;;;;0.90;0.90;;;;;;;;;;6258438;28;20319;-68
2023/09/06 12:56:38;;;;;;;2.17;1.00;;;;;;;;;;6258581;28;20304;-71
2023/09/06 12:59:42;;;;;;;1.88;1.10;;;;;;;;;;6258796;28;20419;-70
2023/09/06 13:02:46;;;;;;;0.82;0.82;;;;;;;;;;6258869;28;20656;-70
2023/09/06 13:05:51;;;;;;;3.50;0.80;;;;;;;;;;6258414;28;20492;-69
2023/09/06 13:08:56;;;;;;;2.85;1.10;;;;;;;;;;6257835;28;20639;-69
2023/09/06 13:12:00;;;;;;;0.93;0.93;;;;;;;;;;6257903;28;20264;-70
2023/09/06 13:15:05;;;;;;;0.85;0.85;;;;;;;;;;6258190;28;20576;-72
2023/09/06 13:18:09;;;;;;;2.22;0.90;;;;;;;;;;6258464;28;20280;-70
2023/09/06 13:21:14;;;;;;;1.02;1.02;;;;;;;;;;6258611;28;20304;-70
2023/09/06 13:24:19;;;;;;;2.10;1.13;;;;;;;;;;6258071;28;20287;-72
2023/09/06 13:27:23;;;;;;;3.72;0.98;;;;;;;;;;6258897;28;20300;-70
2023/09/06 13:30:26;;;;;;;1.10;1.00;;;;;;;;;;6258316;28;20346;-68
2023/09/06 13:33:30;;;;;;;1.65;1.10;;;;;;;;;;6258040;28;20295;-70
2023/09/06 13:36:38;;;;;;;3.88;0.70;;;;;;;;;;6257546;28;20247;-69
2023/09/06 13:39:42;;;;;;;2.85;1.17;;;;;;;;;;6258086;28;20307;-68
2023/09/06 13:42:46;;;;;;;2.75;1.08;;;;;;;;;;6262704;28;20296;-69
2023/09/06 13:45:50;;;;;;;1.05;0.95;;;;;;;;;;6262780;28;20296;-69
2023/09/06 13:48:54;;;;;;;0.80;0.80;;;;;;;;;;6262700;28;20307;-70
2023/09/06 13:51:59;;;;;;;1.10;1.10;;;;;;;;;;6263538;28;20299;-69
2023/09/06 13:55:03;;;;;;;4.35;1.10;;;;;;;;;;6262478;28;20292;-70
2023/09/06 13:58:10;;;;;;;2.72;0.90;;;;;;;;;;6262807;28;20584;-69
2023/09/06 14:01:15;;;;;;;2.35;1.00;;;;;;;;;;6262546;28;20291;-70
2023/09/06 14:04:19;;;;;;;4.72;1.27;;;;;;;;;;6262547;28;20303;-69
2023/09/06 14:07:25;;;;;;;0.90;0.90;;;;;;;;;;6262529;28;20303;-69
2023/09/06 14:10:28;;;;;;;3.63;1.35;;;;;;;;;;6262379;28;20299;-68
2023/09/06 14:13:32;;;;;;;5.05;1.15;;;;;;;;;;6263041;28;20287;-70
2023/09/06 14:16:36;;;;;;;0.98;0.98;;;;;;;;;;6262078;28;20303;-69
2023/09/06 14:19:40;;;;;;;1.85;1.00;;;;;;;;;;6261511;28;20303;-70
2023/09/06 14:22:45;;;;;;;1.95;1.15;;;;;;;;;;6262607;28;20323;-69
2023/09/06 14:25:50;;;;;;;1.00;1.00;;;;;;;;;;6262090;28;20307;-69
2023/09/06 14:28:55;;;;;;;1.10;1.05;;;;;;;;;;6261814;28;20299;-70
2023/09/06 14:31:59;;;;;;;1.45;0.95;;;;;;;;;;6262223;28;20394;-70
2023/09/06 14:35:04;;;;;;;1.27;1.17;;;;;;;;;;6262710;28;20291;-70
2023/09/06 14:38:10;;;;;;;1.55;1.42;;;;;;;;;;6262468;28;20310;-70
2023/09/06 14:41:14;;;;;;;1.27;1.17;;;;;;;;;;6261946;28;20489;-70
2023/09/06 14:44:18;;;;;;;3.10;1.30;;;;;;;;;;6263914;28;20291;-69
2023/09/06 14:47:22;;;;;;;2.72;1.15;;;;;;;;;;6266617;28;20288;-69
2023/09/06 14:50:26;;;;;;;1.77;1.15;;;;;;;;;;6262972;28;20299;-70
2023/09/06 14:53:32;;;;;;;1.05;1.05;;;;;;;;;;6264442;28;20307;-69
2023/09/06 14:56:36;;;;;;;3.50;1.50;;;;;;;;;;6263670;28;20295;-72
2023/09/06 14:59:41;;;;;;;2.75;1.15;;;;;;;;;;6262612;28;20291;-71
2023/09/06 15:02:46;;;;;;;2.08;1.17;;;;;;;;;;6265319;28;20304;-71
2023/09/06 15:05:50;;;;;;;1.30;1.20;;;;;;;;;;6264193;28;20299;-70
2023/09/06 15:08:56;;;;;;;1.10;1.00;;;;;;;;;;6264947;28;20308;-68
2023/09/06 15:12:00;;;;;;;1.33;1.15;;;;;;;;;;6264327;28;20288;-69
2023/09/06 15:15:07;;;;;;;2.40;1.20;;;;;;;;;;6264962;28;20322;-70
2023/09/06 15:18:11;;;;;;;2.25;1.10;;;;;;;;;;6264766;28;20269;-70
2023/09/06 15:21:15;;;;;;;1.00;0.93;;;;;;;;;;6265456;28;20329;-68
2023/09/06 15:24:20;;;;;;;0.85;0.85;;;;;;;;;;6263973;28;20291;-71
2023/09/06 15:27:24;;;;;;;1.20;1.10;;;;;;;;;;6264711;28;20633;-69
2023/09/06 15:30:28;;;;;;;0.80;0.80;;;;;;;;;;6265381;28;20295;-69
2023/09/06 15:33:33;;;;;;;1.40;1.30;;;;;;;;;;6263845;28;20288;-70
2023/09/06 15:36:37;;;;;;;1.80;1.23;;;;;;;;;;6263576;28;20314;-71
2023/09/06 15:39:43;;;;;;;2.08;1.17;;;;;;;;;;6264077;28;20295;-71
2023/09/06 15:42:46;;;;;;;2.55;1.00;;;;;;;;;;6263113;28;20295;-71
2023/09/06 15:45:51;;;;;;;3.75;1.30;;;;;;;;;;6259690;28;20296;-70
2023/09/06 15:48:54;;;;;;;2.13;1.38;;;;;;;;;;6276107;28;20291;-69
2023/09/06 15:51:58;;;;;;;3.22;1.30;;;;;;;;;;6260387;28;20454;-70
2023/09/06 15:55:05;;;;;;;1.25;1.15;;;;;;;;;;6259470;28;20295;-72
2023/09/06 15:58:09;;;;;;;1.15;1.15;;;;;;;;;;6260276;28;20303;-70
2023/09/06 16:01:13;;;;;;;1.77;0.90;;;;;;;;;;6259719;28;20476;-70
2023/09/06 16:04:17;;;;;;;4.22;1.40;;;;;;;;;;6259311;28;20545;-69
2023/09/06 16:07:23;;;;;;;2.50;1.20;;;;;;;;;;6275164;28;20484;-70
2023/09/06 16:10:28;;;;;;;6.50;1.35;;;;;;;;;;6259478;28;20295;-70
2023/09/06 16:13:32;;;;;;;4.47;1.30;;;;;;;;;;6259854;28;20291;-68
2023/09/06 16:16:36;;;;;;;1.90;1.42;;;;;;;;;;6259540;28;20311;-71
2023/09/06 16:19:40;;;;;;;10.40;1.85;;;;;;;;;;6257350;28;20295;-70
2023/09/06 16:22:44;;;;;;;9.00;1.80;;;;;;;;;;6259803;28;20596;-70
2023/09/06 16:25:49;;;;;;;6.57;1.70;;;;;;;;;;6258987;28;20471;-70
2023/09/06 16:28:53;;;;;;;3.97;1.30;;;;;;;;;;6258287;28;20542;-70
2023/09/06 16:31:57;;;;;;;2.90;1.52;;;;;;;;;;6259099;28;20425;-70
2023/09/06 16:35:07;;;;;;;1.30;1.30;;;;;;;;;;6258616;28;20295;-71
2023/09/06 16:38:12;;;;;;;3.85;1.30;;;;;;;;;;6259036;28;20316;-70
2023/09/06 16:41:17;;;;;;;9.15;1.60;;;;;;;;;;6258634;28;20311;-72
2023/09/06 16:44:22;;;;;;;9.77;1.50;;;;;;;;;;6258542;28;20339;-70
2023/09/06 16:47:26;;;;;;;5.13;1.75;;;;;;;;;;6259414;28;20307;-71
2023/09/06 16:50:30;;;;;;;21.35;2.15;;;;;;;;;;6258832;28;20592;-69
2023/09/06 16:53:33;;;;;;;18.40;2.58;;;;;;;;;;6259019;28;20307;-69
2023/09/06 16:56:38;;;;;;;16.33;2.55;;;;;;;;;;6258624;28;20295;-70
2023/09/06 16:59:43;;;;;;;16.98;2.85;;;;;;;;;;6258337;28;20307;-68
2023/09/06 17:02:47;;;;;;;13.05;2.55;;;;;;;;;;6259361;28;20295;-69
2023/09/06 17:05:51;;;;;;;12.70;1.98;;;;;;;;;;6258114;28;20295;-68
2023/09/06 17:08:55;;;;;;;13.05;1.85;;;;;;;;;;6258129;28;20302;-70
2023/09/06 17:12:00;;;;;;;14.40;1.98;;;;;;;;;;6257898;28;20275;-69
2023/09/06 17:15:13;;;;;;;12.82;2.55;;;;;;;;;;6257945;28;20303;-70
2023/09/06 17:18:17;;;;;;;9.57;2.30;;;;;;;;;;6263455;28;20299;-70
2023/09/06 17:21:22;;;;;;;17.75;2.45;;;;;;;;;;6262678;28;20287;-69
2023/09/06 17:24:26;;;;;;;18.95;2.80;;;;;;;;;;6262906;28;20300;-69
2023/09/06 17:27:32;;;;;;;21.77;2.50;;;;;;;;;;6263334;28;20291;-72
2023/09/06 17:30:37;;;;;;;22.45;2.38;;;;;;;;;;6262643;28;20291;-71
2023/09/06 17:33:41;;;;;;;19.80;2.70;;;;;;;;;;6261827;28;20303;-70
2023/09/06 17:36:45;;;;;;;22.75;2.45;;;;;;;;;;6261243;28;20468;-70
2023/09/06 17:39:49;;;;;;;27.77;3.05;;;;;;;;;;6262453;28;20299;-69
2023/09/06 17:42:54;;;;;;;23.17;2.85;;;;;;;;;;6263169;28;20310;-69
2023/09/06 17:45:59;;;;;;;31.38;2.63;;;;;;;;;;6261051;28;20296;-71
2023/09/06 17:49:08;;;;;;;21.42;2.83;;;;;;;;;;6262421;28;20457;-73
2023/09/06 17:52:16;;;;;;;16.63;2.72;;;;;;;;;;6263272;28;20339;-71
2023/09/06 17:55:20;;;;;;;20.90;3.03;;;;;;;;;;6263279;28;20303;-71
2023/09/06 17:58:25;;;;;;;26.08;2.78;;;;;;;;;;6262676;28;20321;-72
2023/09/06 18:01:29;;;;;;;19.15;2.42;;;;;;;;;;6261767;28;20251;-69
2023/09/06 18:04:33;;;;;;;23.27;2.80;;;;;;;;;;6261437;28;20280;-71
2023/09/06 18:07:37;;;;;;;25.85;3.17;;;;;;;;;;6261813;28;20291;-70
2023/09/06 18:10:41;;;;;;;27.17;3.03;;;;;;;;;;6260985;28;20295;-70
2023/09/06 18:13:46;;;;;;;16.60;2.60;;;;;;;;;;6261604;28;20319;-70
2023/09/06 18:16:55;;;;;;;22.77;2.30;;;;;;;;;;6262433;28;20288;-70
2023/09/06 18:19:59;;;;;;;29.55;2.70;;;;;;;;;;6261076;28;20311;-72
2023/09/06 18:23:03;;;;;;;53.75;5.30;;;;;;;;;;6261389;28;20295;-71
2023/09/06 18:26:08;;;;;;;46.28;4.32;;;;;;;;;;6261247;28;20500;-71
2023/09/06 18:29:13;;;;;;;44.08;4.18;;;;;;;;;;6260347;28;20522;-71